sensor_id;sensor_type;location;lat;lon;timestamp;pressure;altitude;pressure_sealevel;temperature;humidity
76229;BME280;65021;53.174;18.160;2024-02-26T00:00:07;100086.37;;;1.67;88.31
76229;BME280;65021;53.174;18.160;2024-02-26T00:02:36;100087.77;;;1.63;88.37
76229;BME280;65021;53.174;18.160;2024-02-26T00:05:05;100088.62;;;1.55;88.27
76229;BME280;65021;53.174;18.160;2024-02-26T00:07:33;100089.00;;;1.54;88.38
76229;BME280;65021;53.174;18.160;2024-02-26T00:09:59;100088.50;;;1.54;88.28
76229;BME280;65021;53.174;18.160;2024-02-26T00:12:26;100086.15;;;1.54;88.30
76229;BME280;65021;53.174;18.160;2024-02-26T00:14:53;100082.65;;;1.57;88.33
76229;BME280;65021;53.174;18.160;2024-02-26T00:17:20;100084.92;;;1.64;88.49
76229;BME280;65021;53.174;18.160;2024-02-26T00:19:46;100084.71;;;1.67;88.53
76229;BME280;65021;53.174;18.160;2024-02-26T00:22:13;100084.95;;;1.65;88.61
76229;BME280;65021;53.174;18.160;2024-02-26T00:24:40;100083.16;;;1.59;88.49
76229;BME280;65021;53.174;18.160;2024-02-26T00:27:07;100081.56;;;1.55;88.57
76229;BME280;65021;53.174;18.160;2024-02-26T00:29:34;100090.38;;;1.52;88.41
76229;BME280;65021;53.174;18.160;2024-02-26T00:32:01;100091.71;;;1.49;88.36
76229;BME280;65021;53.174;18.160;2024-02-26T00:34:27;100088.86;;;1.39;88.16
76229;BME280;65021;53.174;18.160;2024-02-26T00:36:54;100084.05;;;1.32;88.09
76229;BME280;65021;53.174;18.160;2024-02-26T00:39:21;100077.16;;;1.21;88.01
76229;BME280;65021;53.174;18.160;2024-02-26T00:41:47;100073.13;;;1.16;87.96
76229;BME280;65021;53.174;18.160;2024-02-26T00:44:14;100068.40;;;1.14;88.09
76229;BME280;65021;53.174;18.160;2024-02-26T00:46:40;100072.77;;;1.18;88.12
76229;BME280;65021;53.174;18.160;2024-02-26T00:49:07;100068.67;;;1.17;88.20
76229;BME280;65021;53.174;18.160;2024-02-26T00:51:33;100068.09;;;1.10;88.16
76229;BME280;65021;53.174;18.160;2024-02-26T00:54:00;100069.06;;;1.07;88.09
76229;BME280;65021;53.174;18.160;2024-02-26T00:56:27;100069.98;;;1.08;88.12
76229;BME280;65021;53.174;18.160;2024-02-26T00:58:53;100067.33;;;1.05;88.10
76229;BME280;65021;53.174;18.160;2024-02-26T01:01:20;100066.78;;;0.97;88.00
76229;BME280;65021;53.174;18.160;2024-02-26T01:03:46;100065.17;;;0.88;87.96
76229;BME280;65021;53.174;18.160;2024-02-26T01:06:13;100065.38;;;0.89;88.14
76229;BME280;65021;53.174;18.160;2024-02-26T01:08:40;100071.36;;;0.92;88.25
76229;BME280;65021;53.174;18.160;2024-02-26T01:11:07;100074.02;;;0.89;88.16
76229;BME280;65021;53.174;18.160;2024-02-26T01:13:34;100078.59;;;0.84;88.10
76229;BME280;65021;53.174;18.160;2024-02-26T01:16:00;100079.20;;;0.75;87.90
76229;BME280;65021;53.174;18.160;2024-02-26T01:18:28;100077.74;;;0.71;87.80
76229;BME280;65021;53.174;18.160;2024-02-26T01:20:54;100080.83;;;0.68;87.76
76229;BME280;65021;53.174;18.160;2024-02-26T01:23:21;100080.50;;;0.65;87.77
76229;BME280;65021;53.174;18.160;2024-02-26T01:25:47;100078.75;;;0.64;87.79
76229;BME280;65021;53.174;18.160;2024-02-26T01:28:14;100083.43;;;0.73;87.88
76229;BME280;65021;53.174;18.160;2024-02-26T01:30:41;100082.34;;;0.81;87.96
76229;BME280;65021;53.174;18.160;2024-02-26T01:33:08;100078.44;;;0.91;88.07
76229;BME280;65021;53.174;18.160;2024-02-26T01:35:34;100074.92;;;1.02;88.34
76229;BME280;65021;53.174;18.160;2024-02-26T01:38:01;100075.01;;;1.09;88.29
76229;BME280;65021;53.174;18.160;2024-02-26T01:40:27;100077.25;;;1.13;88.09
76229;BME280;65021;53.174;18.160;2024-02-26T01:42:54;100074.54;;;1.17;88.01
76229;BME280;65021;53.174;18.160;2024-02-26T01:45:21;100080.60;;;1.21;88.03
76229;BME280;65021;53.174;18.160;2024-02-26T01:47:51;100084.14;;;1.24;88.03
76229;BME280;65021;53.174;18.160;2024-02-26T01:50:19;100088.13;;;1.27;87.94
76229;BME280;65021;53.174;18.160;2024-02-26T01:52:47;100090.79;;;1.30;87.83
76229;BME280;65021;53.174;18.160;2024-02-26T01:55:17;100089.69;;;1.33;87.91
76229;BME280;65021;53.174;18.160;2024-02-26T01:57:45;100089.21;;;1.42;88.01
76229;BME280;65021;53.174;18.160;2024-02-26T02:00:13;100087.20;;;1.53;88.00
76229;BME280;65021;53.174;18.160;2024-02-26T02:02:41;100086.14;;;1.64;88.26
76229;BME280;65021;53.174;18.160;2024-02-26T02:05:09;100089.48;;;1.72;88.41
76229;BME280;65021;53.174;18.160;2024-02-26T02:07:37;100090.58;;;1.74;88.12
76229;BME280;65021;53.174;18.160;2024-02-26T02:10:05;100090.55;;;1.72;88.13
76229;BME280;65021;53.174;18.160;2024-02-26T02:12:32;100087.84;;;1.69;88.07
76229;BME280;65021;53.174;18.160;2024-02-26T02:15:02;100094.90;;;1.64;87.92
76229;BME280;65021;53.174;18.160;2024-02-26T02:17:28;100090.98;;;1.59;87.83
76229;BME280;65021;53.174;18.160;2024-02-26T02:19:55;100090.17;;;1.54;87.66
76229;BME280;65021;53.174;18.160;2024-02-26T02:22:21;100093.75;;;1.47;87.45
76229;BME280;65021;53.174;18.160;2024-02-26T02:24:49;100087.60;;;1.39;87.51
76229;BME280;65021;53.174;18.160;2024-02-26T02:27:16;100089.27;;;1.28;87.26
76229;BME280;65021;53.174;18.160;2024-02-26T02:29:43;100086.87;;;1.20;87.23
76229;BME280;65021;53.174;18.160;2024-02-26T02:32:10;100085.55;;;1.12;87.26
76229;BME280;65021;53.174;18.160;2024-02-26T02:34:37;100083.19;;;1.05;87.08
76229;BME280;65021;53.174;18.160;2024-02-26T02:37:03;100079.94;;;0.97;87.20
76229;BME280;65021;53.174;18.160;2024-02-26T02:39:30;100074.80;;;0.87;87.17
76229;BME280;65021;53.174;18.160;2024-02-26T02:41:56;100083.40;;;0.85;87.13
76229;BME280;65021;53.174;18.160;2024-02-26T02:44:23;100086.60;;;0.84;87.31
76229;BME280;65021;53.174;18.160;2024-02-26T02:46:50;100088.83;;;0.80;87.32
76229;BME280;65021;53.174;18.160;2024-02-26T02:49:19;100091.16;;;0.73;87.40
76229;BME280;65021;53.174;18.160;2024-02-26T02:51:46;100090.59;;;0.64;87.30
76229;BME280;65021;53.174;18.160;2024-02-26T02:54:12;100092.39;;;0.57;87.25
76229;BME280;65021;53.174;18.160;2024-02-26T02:56:39;100091.27;;;0.53;87.26
76229;BME280;65021;53.174;18.160;2024-02-26T02:59:05;100091.83;;;0.53;87.44
76229;BME280;65021;53.174;18.160;2024-02-26T03:01:32;100091.52;;;0.69;87.74
76229;BME280;65021;53.174;18.160;2024-02-26T03:03:59;100097.48;;;0.80;88.01
76229;BME280;65021;53.174;18.160;2024-02-26T03:06:25;100097.45;;;0.90;88.16
76229;BME280;65021;53.174;18.160;2024-02-26T03:08:54;100103.86;;;0.85;88.22
76229;BME280;65021;53.174;18.160;2024-02-26T03:11:21;100100.86;;;0.70;88.07
76229;BME280;65021;53.174;18.160;2024-02-26T03:13:48;100100.20;;;0.60;87.75
76229;BME280;65021;53.174;18.160;2024-02-26T03:16:14;100100.38;;;0.50;87.66
76229;BME280;65021;53.174;18.160;2024-02-26T03:18:41;100094.92;;;0.44;87.62
76229;BME280;65021;53.174;18.160;2024-02-26T03:21:07;100095.94;;;0.41;87.61
76229;BME280;65021;53.174;18.160;2024-02-26T03:23:34;100092.80;;;0.38;87.58
76229;BME280;65021;53.174;18.160;2024-02-26T03:26:04;100094.03;;;0.36;87.53
76229;BME280;65021;53.174;18.160;2024-02-26T03:28:31;100093.09;;;0.33;87.61
76229;BME280;65021;53.174;18.160;2024-02-26T03:31:00;100091.27;;;0.30;87.42
76229;BME280;65021;53.174;18.160;2024-02-26T03:33:27;100091.20;;;0.28;87.25
76229;BME280;65021;53.174;18.160;2024-02-26T03:35:54;100089.78;;;0.27;87.36
76229;BME280;65021;53.174;18.160;2024-02-26T03:38:20;100092.09;;;0.26;87.31
76229;BME280;65021;53.174;18.160;2024-02-26T03:40:47;100091.09;;;0.30;87.44
76229;BME280;65021;53.174;18.160;2024-02-26T03:43:14;100095.55;;;0.35;87.51
76229;BME280;65021;53.174;18.160;2024-02-26T03:45:40;100099.67;;;0.37;87.32
76229;BME280;65021;53.174;18.160;2024-02-26T03:48:07;100098.83;;;0.40;87.41
76229;BME280;65021;53.174;18.160;2024-02-26T03:50:34;100100.36;;;0.45;87.33
76229;BME280;65021;53.174;18.160;2024-02-26T03:53:01;100100.58;;;0.50;87.52
76229;BME280;65021;53.174;18.160;2024-02-26T03:55:28;100106.11;;;0.55;87.52
76229;BME280;65021;53.174;18.160;2024-02-26T03:57:54;100110.77;;;0.58;87.43
76229;BME280;65021;53.174;18.160;2024-02-26T04:00:21;100111.28;;;0.62;87.47
76229;BME280;65021;53.174;18.160;2024-02-26T04:02:48;100111.98;;;0.63;87.42
76229;BME280;65021;53.174;18.160;2024-02-26T04:05:14;100113.70;;;0.63;87.41
76229;BME280;65021;53.174;18.160;2024-02-26T04:07:41;100109.29;;;0.63;87.44
76229;BME280;65021;53.174;18.160;2024-02-26T04:10:11;100107.34;;;0.64;87.50
76229;BME280;65021;53.174;18.160;2024-02-26T04:12:42;100108.44;;;0.65;87.57
76229;BME280;65021;53.174;18.160;2024-02-26T04:15:09;100110.95;;;0.67;87.75
76229;BME280;65021;53.174;18.160;2024-02-26T04:17:37;100109.48;;;0.68;87.76
76229;BME280;65021;53.174;18.160;2024-02-26T04:20:05;100105.52;;;0.70;87.72
76229;BME280;65021;53.174;18.160;2024-02-26T04:22:33;100104.70;;;0.71;87.74
76229;BME280;65021;53.174;18.160;2024-02-26T04:24:59;100099.80;;;0.71;87.73
76229;BME280;65021;53.174;18.160;2024-02-26T04:27:26;100101.17;;;0.69;87.77
76229;BME280;65021;53.174;18.160;2024-02-26T04:29:53;100103.67;;;0.66;87.61
76229;BME280;65021;53.174;18.160;2024-02-26T04:32:19;100103.42;;;0.61;87.53
76229;BME280;65021;53.174;18.160;2024-02-26T04:34:47;100108.30;;;0.57;87.61
76229;BME280;65021;53.174;18.160;2024-02-26T04:37:13;100107.42;;;0.52;87.64
76229;BME280;65021;53.174;18.160;2024-02-26T04:39:40;100108.30;;;0.47;87.50
76229;BME280;65021;53.174;18.160;2024-02-26T04:42:07;100107.15;;;0.41;87.69
76229;BME280;65021;53.174;18.160;2024-02-26T04:44:33;100105.06;;;0.36;87.42
76229;BME280;65021;53.174;18.160;2024-02-26T04:47:00;100109.34;;;0.29;87.25
76229;BME280;65021;53.174;18.160;2024-02-26T04:49:28;100110.05;;;0.22;87.49
76229;BME280;65021;53.174;18.160;2024-02-26T04:51:54;100106.19;;;0.14;87.39
76229;BME280;65021;53.174;18.160;2024-02-26T04:54:21;100106.82;;;0.07;87.39
76229;BME280;65021;53.174;18.160;2024-02-26T04:56:47;100109.25;;;0.04;87.31
76229;BME280;65021;53.174;18.160;2024-02-26T04:59:14;100108.35;;;0.01;87.35
76229;BME280;65021;53.174;18.160;2024-02-26T05:01:41;100111.21;;;-0.03;87.37
76229;BME280;65021;53.174;18.160;2024-02-26T05:04:08;100113.10;;;-0.07;87.31
76229;BME280;65021;53.174;18.160;2024-02-26T05:06:36;100116.02;;;-0.09;87.42
76229;BME280;65021;53.174;18.160;2024-02-26T05:09:03;100119.55;;;-0.13;87.38
76229;BME280;65021;53.174;18.160;2024-02-26T05:11:30;100119.96;;;-0.15;87.50
76229;BME280;65021;53.174;18.160;2024-02-26T05:13:57;100123.44;;;-0.15;87.48
76229;BME280;65021;53.174;18.160;2024-02-26T05:16:23;100122.14;;;-0.18;87.52
76229;BME280;65021;53.174;18.160;2024-02-26T05:18:51;100126.25;;;-0.23;87.35
76229;BME280;65021;53.174;18.160;2024-02-26T05:21:17;100140.95;;;-0.26;87.46
76229;BME280;65021;53.174;18.160;2024-02-26T05:23:44;100143.80;;;-0.28;87.36
76229;BME280;65021;53.174;18.160;2024-02-26T05:26:11;100147.64;;;-0.32;87.38
76229;BME280;65021;53.174;18.160;2024-02-26T05:28:38;100146.88;;;-0.39;87.27
76229;BME280;65021;53.174;18.160;2024-02-26T05:31:05;100152.05;;;-0.46;87.21
76229;BME280;65021;53.174;18.160;2024-02-26T05:33:32;100152.28;;;-0.49;87.17
76229;BME280;65021;53.174;18.160;2024-02-26T05:35:59;100153.69;;;-0.52;87.26
76229;BME280;65021;53.174;18.160;2024-02-26T05:38:30;100156.83;;;-0.54;87.33
76229;BME280;65021;53.174;18.160;2024-02-26T05:40:58;100158.34;;;-0.56;87.14
76229;BME280;65021;53.174;18.160;2024-02-26T05:43:26;100155.58;;;-0.55;87.25
76229;BME280;65021;53.174;18.160;2024-02-26T05:45:53;100158.42;;;-0.56;87.22
76229;BME280;65021;53.174;18.160;2024-02-26T05:48:19;100162.74;;;-0.57;87.28
76229;BME280;65021;53.174;18.160;2024-02-26T05:50:46;100162.82;;;-0.58;87.32
76229;BME280;65021;53.174;18.160;2024-02-26T05:53:14;100165.56;;;-0.61;87.05
76229;BME280;65021;53.174;18.160;2024-02-26T05:55:41;100170.07;;;-0.64;87.16
76229;BME280;65021;53.174;18.160;2024-02-26T05:58:07;100177.52;;;-0.64;87.02
76229;BME280;65021;53.174;18.160;2024-02-26T06:00:34;100177.58;;;-0.62;87.05
76229;BME280;65021;53.174;18.160;2024-02-26T06:03:01;100180.67;;;-0.60;86.92
76229;BME280;65021;53.174;18.160;2024-02-26T06:05:28;100179.38;;;-0.60;87.07
76229;BME280;65021;53.174;18.160;2024-02-26T06:07:55;100180.80;;;-0.58;87.16
76229;BME280;65021;53.174;18.160;2024-02-26T06:10:22;100182.38;;;-0.51;87.11
76229;BME280;65021;53.174;18.160;2024-02-26T06:12:48;100182.98;;;-0.45;86.96
76229;BME280;65021;53.174;18.160;2024-02-26T06:15:15;100178.81;;;-0.40;86.98
76229;BME280;65021;53.174;18.160;2024-02-26T06:17:41;100181.31;;;-0.36;86.92
76229;BME280;65021;53.174;18.160;2024-02-26T06:20:08;100183.83;;;-0.33;87.00
76229;BME280;65021;53.174;18.160;2024-02-26T06:22:41;100186.17;;;-0.27;86.97
76229;BME280;65021;53.174;18.160;2024-02-26T06:25:08;100189.52;;;-0.19;87.00
76229;BME280;65021;53.174;18.160;2024-02-26T06:27:35;100196.71;;;-0.11;86.93
76229;BME280;65021;53.174;18.160;2024-02-26T06:30:02;100194.75;;;-0.03;87.15
76229;BME280;65021;53.174;18.160;2024-02-26T06:32:29;100195.80;;;0.01;86.91
76229;BME280;65021;53.174;18.160;2024-02-26T06:34:56;100192.06;;;0.05;87.00
76229;BME280;65021;53.174;18.160;2024-02-26T06:37:23;100194.31;;;0.08;86.86
76229;BME280;65021;53.174;18.160;2024-02-26T06:39:49;100207.87;;;0.14;86.77
76229;BME280;65021;53.174;18.160;2024-02-26T06:42:18;100210.18;;;0.23;86.80
76229;BME280;65021;53.174;18.160;2024-02-26T06:44:45;100209.27;;;0.31;86.95
76229;BME280;65021;53.174;18.160;2024-02-26T06:47:11;100210.52;;;0.38;86.84
76229;BME280;65021;53.174;18.160;2024-02-26T06:49:38;100210.01;;;0.46;86.73
76229;BME280;65021;53.174;18.160;2024-02-26T06:52:05;100212.71;;;0.54;86.72
76229;BME280;65021;53.174;18.160;2024-02-26T06:54:32;100210.92;;;0.59;86.82
76229;BME280;65021;53.174;18.160;2024-02-26T06:56:59;100211.02;;;0.61;86.67
76229;BME280;65021;53.174;18.160;2024-02-26T06:59:26;100214.38;;;0.63;86.81
76229;BME280;65021;53.174;18.160;2024-02-26T07:01:53;100208.19;;;0.67;86.84
76229;BME280;65021;53.174;18.160;2024-02-26T07:04:21;100205.40;;;0.75;86.83
76229;BME280;65021;53.174;18.160;2024-02-26T07:06:47;100205.52;;;0.82;86.72
76229;BME280;65021;53.174;18.160;2024-02-26T07:09:14;100208.94;;;0.91;86.70
76229;BME280;65021;53.174;18.160;2024-02-26T07:11:41;100215.19;;;1.01;86.71
76229;BME280;65021;53.174;18.160;2024-02-26T07:14:11;100217.79;;;1.04;86.56
76229;BME280;65021;53.174;18.160;2024-02-26T07:16:38;100216.83;;;1.12;86.54
76229;BME280;65021;53.174;18.160;2024-02-26T07:19:05;100218.88;;;1.22;86.67
76229;BME280;65021;53.174;18.160;2024-02-26T07:21:32;100221.80;;;1.35;86.54
76229;BME280;65021;53.174;18.160;2024-02-26T07:23:58;100227.73;;;1.48;86.49
76229;BME280;65021;53.174;18.160;2024-02-26T07:26:25;100226.66;;;1.62;86.48
76229;BME280;65021;53.174;18.160;2024-02-26T07:28:52;100224.90;;;1.78;86.41
76229;BME280;65021;53.174;18.160;2024-02-26T07:31:19;100226.85;;;1.89;86.30
76229;BME280;65021;53.174;18.160;2024-02-26T07:33:45;100224.50;;;2.00;86.22
76229;BME280;65021;53.174;18.160;2024-02-26T07:36:12;100227.23;;;2.13;86.13
76229;BME280;65021;53.174;18.160;2024-02-26T07:38:39;100227.52;;;2.29;86.09
76229;BME280;65021;53.174;18.160;2024-02-26T07:41:05;100228.59;;;2.42;86.14
76229;BME280;65021;53.174;18.160;2024-02-26T07:43:32;100237.17;;;2.39;85.72
76229;BME280;65021;53.174;18.160;2024-02-26T07:45:59;100239.83;;;2.31;85.27
76229;BME280;65021;53.174;18.160;2024-02-26T07:48:26;100241.27;;;2.32;85.32
76229;BME280;65021;53.174;18.160;2024-02-26T07:50:52;100244.55;;;2.36;85.43
76229;BME280;65021;53.174;18.160;2024-02-26T07:53:19;100246.98;;;2.36;85.29
76229;BME280;65021;53.174;18.160;2024-02-26T07:55:46;100247.41;;;2.40;85.25
76229;BME280;65021;53.174;18.160;2024-02-26T07:58:13;100249.11;;;2.50;85.53
76229;BME280;65021;53.174;18.160;2024-02-26T08:00:40;100250.98;;;2.58;85.26
76229;BME280;65021;53.174;18.160;2024-02-26T08:03:07;100256.56;;;2.58;85.02
76229;BME280;65021;53.174;18.160;2024-02-26T08:05:34;100255.58;;;2.68;85.12
76229;BME280;65021;53.174;18.160;2024-02-26T08:08:01;100253.65;;;2.81;84.96
76229;BME280;65021;53.174;18.160;2024-02-26T08:10:28;100253.31;;;2.97;85.20
76229;BME280;65021;53.174;18.160;2024-02-26T08:12:54;100251.89;;;3.14;85.30
76229;BME280;65021;53.174;18.160;2024-02-26T08:15:21;100255.89;;;3.31;85.10
76229;BME280;65021;53.174;18.160;2024-02-26T08:17:47;100257.19;;;3.44;84.89
76229;BME280;65021;53.174;18.160;2024-02-26T08:20:14;100256.20;;;3.59;84.90
76229;BME280;65021;53.174;18.160;2024-02-26T08:22:41;100258.22;;;3.72;84.73
76229;BME280;65021;53.174;18.160;2024-02-26T08:25:08;100261.94;;;3.85;85.15
76229;BME280;65021;53.174;18.160;2024-02-26T08:27:36;100265.19;;;3.96;84.77
76229;BME280;65021;53.174;18.160;2024-02-26T08:30:03;100263.08;;;4.13;84.96
76229;BME280;65021;53.174;18.160;2024-02-26T08:32:30;100261.26;;;4.23;84.58
76229;BME280;65021;53.174;18.160;2024-02-26T08:34:56;100262.20;;;4.27;84.14
76229;BME280;65021;53.174;18.160;2024-02-26T08:37:23;100261.00;;;4.30;84.05
76229;BME280;65021;53.174;18.160;2024-02-26T08:39:50;100260.83;;;4.31;83.43
76229;BME280;65021;53.174;18.160;2024-02-26T08:42:17;100262.83;;;4.33;83.46
76229;BME280;65021;53.174;18.160;2024-02-26T08:44:43;100265.97;;;4.37;83.62
76229;BME280;65021;53.174;18.160;2024-02-26T08:47:10;100261.92;;;4.44;83.85
76229;BME280;65021;53.174;18.160;2024-02-26T08:49:36;100268.43;;;4.55;84.06
76229;BME280;65021;53.174;18.160;2024-02-26T08:52:04;100269.17;;;4.58;83.68
76229;BME280;65021;53.174;18.160;2024-02-26T08:54:31;100272.08;;;4.64;83.58
76229;BME280;65021;53.174;18.160;2024-02-26T08:56:58;100272.42;;;4.68;83.63
76229;BME280;65021;53.174;18.160;2024-02-26T08:59:25;100274.05;;;4.74;83.55
76229;BME280;65021;53.174;18.160;2024-02-26T09:01:52;100271.59;;;4.82;83.21
76229;BME280;65021;53.174;18.160;2024-02-26T09:04:18;100273.48;;;4.88;83.53
76229;BME280;65021;53.174;18.160;2024-02-26T09:06:45;100274.41;;;4.87;83.22
76229;BME280;65021;53.174;18.160;2024-02-26T09:09:12;100276.89;;;4.86;82.92
76229;BME280;65021;53.174;18.160;2024-02-26T09:11:38;100278.08;;;4.86;82.93
76229;BME280;65021;53.174;18.160;2024-02-26T09:14:05;100280.52;;;4.95;83.26
76229;BME280;65021;53.174;18.160;2024-02-26T09:16:31;100281.88;;;4.96;82.50
76229;BME280;65021;53.174;18.160;2024-02-26T09:18:58;100286.48;;;4.92;82.55
76229;BME280;65021;53.174;18.160;2024-02-26T09:21:25;100288.25;;;4.93;82.49
76229;BME280;65021;53.174;18.160;2024-02-26T09:23:52;100289.02;;;4.95;82.55
76229;BME280;65021;53.174;18.160;2024-02-26T09:26:19;100289.27;;;4.95;82.58
76229;BME280;65021;53.174;18.160;2024-02-26T09:28:45;100290.55;;;4.98;82.90
76229;BME280;65021;53.174;18.160;2024-02-26T09:31:12;100298.02;;;4.95;82.43
76229;BME280;65021;53.174;18.160;2024-02-26T09:33:42;100293.48;;;4.97;82.82
76229;BME280;65021;53.174;18.160;2024-02-26T09:36:08;100294.73;;;4.96;83.08
76229;BME280;65021;53.174;18.160;2024-02-26T09:38:37;100291.45;;;4.99;83.06
76229;BME280;65021;53.174;18.160;2024-02-26T09:41:05;100289.17;;;5.03;83.17
76229;BME280;65021;53.174;18.160;2024-02-26T09:43:35;100288.96;;;5.08;83.35
76229;BME280;65021;53.174;18.160;2024-02-26T09:46:06;100285.20;;;5.20;83.53
76229;BME280;65021;53.174;18.160;2024-02-26T09:48:35;100291.66;;;5.35;83.76
76229;BME280;65021;53.174;18.160;2024-02-26T09:51:04;100290.61;;;5.43;83.43
76229;BME280;65021;53.174;18.160;2024-02-26T09:53:31;100294.91;;;5.51;83.11
76229;BME280;65021;53.174;18.160;2024-02-26T09:55:58;100298.98;;;5.58;83.09
76229;BME280;65021;53.174;18.160;2024-02-26T09:58:28;100300.19;;;5.65;82.91
76229;BME280;65021;53.174;18.160;2024-02-26T10:00:56;100307.13;;;5.74;82.68
76229;BME280;65021;53.174;18.160;2024-02-26T10:03:29;100306.92;;;5.79;82.12
76229;BME280;65021;53.174;18.160;2024-02-26T10:05:57;100302.38;;;5.80;81.46
76229;BME280;65021;53.174;18.160;2024-02-26T10:08:24;100300.52;;;5.85;81.92
76229;BME280;65021;53.174;18.160;2024-02-26T10:10:52;100301.91;;;5.93;81.99
76229;BME280;65021;53.174;18.160;2024-02-26T10:13:19;100305.59;;;5.97;81.69
76229;BME280;65021;53.174;18.160;2024-02-26T10:15:46;100300.93;;;6.04;81.72
76229;BME280;65021;53.174;18.160;2024-02-26T10:18:13;100301.59;;;6.17;81.85
76229;BME280;65021;53.174;18.160;2024-02-26T10:20:40;100297.42;;;6.33;81.75
76229;BME280;65021;53.174;18.160;2024-02-26T10:23:06;100296.09;;;6.48;81.93
76229;BME280;65021;53.174;18.160;2024-02-26T10:25:33;100298.26;;;6.61;81.45
76229;BME280;65021;53.174;18.160;2024-02-26T10:28:01;100293.55;;;6.72;81.19
76229;BME280;65021;53.174;18.160;2024-02-26T10:30:30;100292.34;;;6.88;81.12
76229;BME280;65021;53.174;18.160;2024-02-26T10:32:57;100291.93;;;6.99;80.78
76229;BME280;65021;53.174;18.160;2024-02-26T10:35:24;100292.10;;;7.12;81.01
76229;BME280;65021;53.174;18.160;2024-02-26T10:37:51;100287.05;;;7.23;80.89
76229;BME280;65021;53.174;18.160;2024-02-26T10:40:19;100286.13;;;7.34;80.36
76229;BME280;65021;53.174;18.160;2024-02-26T10:42:45;100282.48;;;7.46;79.88
76229;BME280;65021;53.174;18.160;2024-02-26T10:45:12;100279.09;;;7.60;79.99
76229;BME280;65021;53.174;18.160;2024-02-26T10:47:40;100278.77;;;7.76;80.08
76229;BME280;65021;53.174;18.160;2024-02-26T10:50:08;100281.18;;;7.90;79.56
76229;BME280;65021;53.174;18.160;2024-02-26T10:52:36;100286.48;;;8.04;78.93
76229;BME280;65021;53.174;18.160;2024-02-26T10:55:04;100287.27;;;8.17;79.05
76229;BME280;65021;53.174;18.160;2024-02-26T10:57:40;100288.77;;;8.27;78.22
76229;BME280;65021;53.174;18.160;2024-02-26T11:00:10;100290.21;;;8.39;78.56
76229;BME280;65021;53.174;18.160;2024-02-26T11:02:40;100290.61;;;8.49;78.73
76229;BME280;65021;53.174;18.160;2024-02-26T11:05:07;100289.48;;;8.54;77.38
76229;BME280;65021;53.174;18.160;2024-02-26T11:07:34;100288.39;;;8.56;78.30
76229;BME280;65021;53.174;18.160;2024-02-26T11:10:04;100291.66;;;8.62;77.50
76229;BME280;65021;53.174;18.160;2024-02-26T11:12:35;100285.39;;;8.67;78.28
76229;BME280;65021;53.174;18.160;2024-02-26T11:15:05;100283.19;;;8.77;77.70
76229;BME280;65021;53.174;18.160;2024-02-26T11:17:32;100280.62;;;8.94;77.57
76229;BME280;65021;53.174;18.160;2024-02-26T11:20:00;100276.10;;;9.09;77.16
76229;BME280;65021;53.174;18.160;2024-02-26T11:22:29;100276.91;;;9.27;77.75
76229;BME280;65021;53.174;18.160;2024-02-26T11:24:56;100278.05;;;9.44;76.79
76229;BME280;65021;53.174;18.160;2024-02-26T11:27:28;100278.79;;;9.56;75.48
76229;BME280;65021;53.174;18.160;2024-02-26T11:29:57;100280.64;;;9.66;76.32
76229;BME280;65021;53.174;18.160;2024-02-26T11:32:29;100275.58;;;9.73;75.23
76229;BME280;65021;53.174;18.160;2024-02-26T11:34:57;100276.04;;;9.80;75.81
76229;BME280;65021;53.174;18.160;2024-02-26T11:37:25;100272.50;;;9.87;75.88
76229;BME280;65021;53.174;18.160;2024-02-26T11:39:52;100266.98;;;9.97;75.77
76229;BME280;65021;53.174;18.160;2024-02-26T11:42:23;100270.08;;;10.01;74.35
76229;BME280;65021;53.174;18.160;2024-02-26T11:44:51;100276.77;;;10.09;75.31
76229;BME280;65021;53.174;18.160;2024-02-26T11:47:20;100283.23;;;10.12;75.06
76229;BME280;65021;53.174;18.160;2024-02-26T11:49:47;100286.33;;;10.18;75.34
76229;BME280;65021;53.174;18.160;2024-02-26T11:52:15;100287.46;;;10.20;75.36
76229;BME280;65021;53.174;18.160;2024-02-26T11:54:53;100284.51;;;10.24;75.09
76229;BME280;65021;53.174;18.160;2024-02-26T11:59:47;100285.20;;;10.38;75.28
76229;BME280;65021;53.174;18.160;2024-02-26T12:05:12;100287.75;;;10.49;74.88
76229;BME280;65021;53.174;18.160;2024-02-26T12:07:56;100284.23;;;10.56;75.00
76229;BME280;65021;53.174;18.160;2024-02-26T12:10:32;100281.69;;;10.64;74.54
76229;BME280;65021;53.174;18.160;2024-02-26T12:13:06;100276.96;;;10.70;75.22
76229;BME280;65021;53.174;18.160;2024-02-26T12:15:37;100279.98;;;10.78;75.15
76229;BME280;65021;53.174;18.160;2024-02-26T12:18:06;100280.05;;;10.82;74.71
76229;BME280;65021;53.174;18.160;2024-02-26T12:20:34;100281.40;;;10.85;74.56
76229;BME280;65021;53.174;18.160;2024-02-26T12:23:02;100277.59;;;10.84;73.84
76229;BME280;65021;53.174;18.160;2024-02-26T12:25:31;100278.52;;;10.85;74.10
76229;BME280;65021;53.174;18.160;2024-02-26T12:27:59;100278.33;;;10.90;74.79
76229;BME280;65021;53.174;18.160;2024-02-26T12:30:26;100278.82;;;10.98;74.45
76229;BME280;65021;53.174;18.160;2024-02-26T12:32:56;100277.20;;;11.08;72.98
76229;BME280;65021;53.174;18.160;2024-02-26T12:35:24;100273.83;;;11.22;73.27
76229;BME280;65021;53.174;18.160;2024-02-26T12:37:52;100272.65;;;11.30;73.66
76229;BME280;65021;53.174;18.160;2024-02-26T12:40:20;100270.84;;;11.32;72.21
76229;BME280;65021;53.174;18.160;2024-02-26T12:42:47;100273.55;;;11.34;72.57
76229;BME280;65021;53.174;18.160;2024-02-26T12:45:15;100272.97;;;11.36;73.38
76229;BME280;65021;53.174;18.160;2024-02-26T12:47:43;100271.16;;;11.39;73.39
76229;BME280;65021;53.174;18.160;2024-02-26T12:50:10;100267.29;;;11.39;72.19
76229;BME280;65021;53.174;18.160;2024-02-26T12:52:40;100267.55;;;11.39;72.46